sensor_id;sensor_type;location;lat;lon;timestamp;P1;durP1;ratioP1;P2;durP2;ratioP2
53801;SDS011;39709;53.334;6.534;2022-11-20T00:02:24;18.25;;;8.55;;
53801;SDS011;39709;53.334;6.534;2022-11-20T00:04:50;20.05;;;8.05;;
53801;SDS011;39709;53.334;6.534;2022-11-20T00:07:16;29.58;;;7.95;;
53801;SDS011;39709;53.334;6.534;2022-11-20T00:09:42;22.83;;;7.90;;
53801;SDS011;39709;53.334;6.534;2022-11-20T00:12:07;18.45;;;7.90;;
53801;SDS011;39709;53.334;6.534;2022-11-20T00:14:33;17.83;;;7.72;;
53801;SDS011;39709;53.334;6.534;2022-11-20T00:16:59;17.90;;;8.50;;
53801;SDS011;39709;53.334;6.534;2022-11-20T00:19:25;20.47;;;8.60;;
53801;SDS011;39709;53.334;6.534;2022-11-20T00:21:51;18.88;;;7.90;;
53801;SDS011;39709;53.334;6.534;2022-11-20T00:24:18;19.40;;;7.75;;
53801;SDS011;39709;53.334;6.534;2022-11-20T00:26:44;18.03;;;7.70;;
53801;SDS011;39709;53.334;6.534;2022-11-20T00:29:10;20.40;;;8.15;;
53801;SDS011;39709;53.334;6.534;2022-11-20T00:31:35;16.23;;;7.20;;
53801;SDS011;39709;53.334;6.534;2022-11-20T00:34:01;22.15;;;9.30;;
53801;SDS011;39709;53.334;6.534;2022-11-20T00:36:28;19.00;;;7.80;;
53801;SDS011;39709;53.334;6.534;2022-11-20T00:38:57;19.02;;;8.18;;
53801;SDS011;39709;53.334;6.534;2022-11-20T00:41:24;19.00;;;8.02;;
53801;SDS011;39709;53.334;6.534;2022-11-20T00:43:51;23.83;;;8.25;;
53801;SDS011;39709;53.334;6.534;2022-11-20T00:46:19;18.73;;;7.95;;
53801;SDS011;39709;53.334;6.534;2022-11-20T00:48:46;18.33;;;7.37;;
53801;SDS011;39709;53.334;6.534;2022-11-20T00:51:13;19.95;;;7.47;;
53801;SDS011;39709;53.334;6.534;2022-11-20T00:53:44;16.05;;;6.10;;
53801;SDS011;39709;53.334;6.534;2022-11-20T00:56:12;19.75;;;8.05;;
53801;SDS011;39709;53.334;6.534;2022-11-20T00:58:40;17.80;;;7.33;;
53801;SDS011;39709;53.334;6.534;2022-11-20T01:01:09;15.00;;;5.97;;
53801;SDS011;39709;53.334;6.534;2022-11-20T01:03:35;17.48;;;7.45;;
53801;SDS011;39709;53.334;6.534;2022-11-20T01:06:03;17.60;;;6.90;;
53801;SDS011;39709;53.334;6.534;2022-11-20T01:08:31;17.40;;;7.00;;
53801;SDS011;39709;53.334;6.534;2022-11-20T01:10:59;17.83;;;7.30;;
53801;SDS011;39709;53.334;6.534;2022-11-20T01:13:26;13.57;;;5.60;;
53801;SDS011;39709;53.334;6.534;2022-11-20T01:18:38;16.45;;;6.00;;
53801;SDS011;39709;53.334;6.534;2022-11-20T01:21:06;14.68;;;5.20;;
53801;SDS011;39709;53.334;6.534;2022-11-20T01:23:37;17.37;;;7.43;;
53801;SDS011;39709;53.334;6.534;2022-11-20T01:26:05;8.98;;;3.55;;
53801;SDS011;39709;53.334;6.534;2022-11-20T01:28:32;17.20;;;6.90;;
53801;SDS011;39709;53.334;6.534;2022-11-20T01:30:59;16.75;;;7.20;;
53801;SDS011;39709;53.334;6.534;2022-11-20T01:33:25;20.45;;;7.85;;
53801;SDS011;39709;53.334;6.534;2022-11-20T01:35:51;17.83;;;7.57;;
53801;SDS011;39709;53.334;6.534;2022-11-20T01:38:18;14.30;;;5.20;;
53801;SDS011;39709;53.334;6.534;2022-11-20T01:40:45;11.52;;;4.45;;
53801;SDS011;39709;53.334;6.534;2022-11-20T01:43:19;17.67;;;8.00;;
53801;SDS011;39709;53.334;6.534;2022-11-20T01:48:18;17.07;;;6.90;;
53801;SDS011;39709;53.334;6.534;2022-11-20T01:50:45;15.90;;;6.75;;
53801;SDS011;39709;53.334;6.534;2022-11-20T01:53:12;17.00;;;7.38;;
53801;SDS011;39709;53.334;6.534;2022-11-20T01:55:44;7.40;;;2.55;;
53801;SDS011;39709;53.334;6.534;2022-11-20T01:58:13;19.58;;;7.20;;
53801;SDS011;39709;53.334;6.534;2022-11-20T02:00:40;20.40;;;7.60;;
53801;SDS011;39709;53.334;6.534;2022-11-20T02:03:10;18.30;;;7.40;;
53801;SDS011;39709;53.334;6.534;2022-11-20T02:05:46;15.93;;;6.72;;
53801;SDS011;39709;53.334;6.534;2022-11-20T02:08:32;21.35;;;8.57;;
53801;SDS011;39709;53.334;6.534;2022-11-20T02:10:58;18.13;;;7.93;;
53801;SDS011;39709;53.334;6.534;2022-11-20T02:13:24;16.27;;;7.03;;
53801;SDS011;39709;53.334;6.534;2022-11-20T02:16:28;16.73;;;7.03;;
53801;SDS011;39709;53.334;6.534;2022-11-20T02:19:03;12.23;;;4.33;;
53801;SDS011;39709;53.334;6.534;2022-11-20T02:21:35;16.50;;;6.53;;
53801;SDS011;39709;53.334;6.534;2022-11-20T02:32:36;16.30;;;6.73;;
53801;SDS011;39709;53.334;6.534;2022-11-20T02:37:43;16.73;;;7.13;;
53801;SDS011;39709;53.334;6.534;2022-11-20T02:40:12;17.20;;;6.88;;
53801;SDS011;39709;53.334;6.534;2022-11-20T02:42:38;16.35;;;7.85;;
53801;SDS011;39709;53.334;6.534;2022-11-20T02:45:04;18.57;;;7.30;;
53801;SDS011;39709;53.334;6.534;2022-11-20T02:47:31;20.25;;;7.80;;
53801;SDS011;39709;53.334;6.534;2022-11-20T02:49:57;18.15;;;7.57;;
53801;SDS011;39709;53.334;6.534;2022-11-20T02:52:23;20.57;;;8.17;;
53801;SDS011;39709;53.334;6.534;2022-11-20T02:54:49;18.30;;;7.50;;
53801;SDS011;39709;53.334;6.534;2022-11-20T02:57:15;18.90;;;8.27;;
53801;SDS011;39709;53.334;6.534;2022-11-20T02:59:41;18.43;;;7.97;;
53801;SDS011;39709;53.334;6.534;2022-11-20T03:02:06;19.27;;;8.63;;
53801;SDS011;39709;53.334;6.534;2022-11-20T03:04:32;18.07;;;9.10;;
53801;SDS011;39709;53.334;6.534;2022-11-20T03:06:58;20.75;;;8.65;;
53801;SDS011;39709;53.334;6.534;2022-11-20T03:09:24;21.00;;;8.93;;
53801;SDS011;39709;53.334;6.534;2022-11-20T03:11:49;18.27;;;7.68;;
53801;SDS011;39709;53.334;6.534;2022-11-20T03:14:15;18.93;;;8.50;;
53801;SDS011;39709;53.334;6.534;2022-11-20T03:16:41;19.88;;;8.55;;
53801;SDS011;39709;53.334;6.534;2022-11-20T03:19:06;18.83;;;7.90;;
53801;SDS011;39709;53.334;6.534;2022-11-20T03:21:32;19.92;;;7.15;;
53801;SDS011;39709;53.334;6.534;2022-11-20T03:23:59;20.43;;;7.70;;
53801;SDS011;39709;53.334;6.534;2022-11-20T03:26:26;18.95;;;7.78;;
53801;SDS011;39709;53.334;6.534;2022-11-20T03:28:53;14.88;;;5.85;;
53801;SDS011;39709;53.334;6.534;2022-11-20T03:31:29;21.13;;;8.20;;
53801;SDS011;39709;53.334;6.534;2022-11-20T03:33:57;26.08;;;9.57;;
53801;SDS011;39709;53.334;6.534;2022-11-20T03:36:25;19.15;;;8.30;;
53801;SDS011;39709;53.334;6.534;2022-11-20T03:38:52;17.75;;;8.07;;
53801;SDS011;39709;53.334;6.534;2022-11-20T03:41:20;21.73;;;8.23;;
53801;SDS011;39709;53.334;6.534;2022-11-20T03:43:50;17.60;;;7.40;;
53801;SDS011;39709;53.334;6.534;2022-11-20T03:46:18;18.55;;;7.72;;
53801;SDS011;39709;53.334;6.534;2022-11-20T03:48:44;21.03;;;8.63;;
53801;SDS011;39709;53.334;6.534;2022-11-20T03:51:11;23.60;;;8.63;;
53801;SDS011;39709;53.334;6.534;2022-11-20T03:53:39;21.55;;;8.32;;
53801;SDS011;39709;53.334;6.534;2022-11-20T03:56:06;17.17;;;7.88;;
53801;SDS011;39709;53.334;6.534;2022-11-20T03:58:34;19.27;;;7.47;;
53801;SDS011;39709;53.334;6.534;2022-11-20T04:01:17;16.02;;;6.93;;
53801;SDS011;39709;53.334;6.534;2022-11-20T04:03:48;15.52;;;6.90;;
53801;SDS011;39709;53.334;6.534;2022-11-20T04:06:15;16.27;;;6.13;;
53801;SDS011;39709;53.334;6.534;2022-11-20T04:08:43;18.15;;;7.68;;
53801;SDS011;39709;53.334;6.534;2022-11-20T04:11:10;16.45;;;6.75;;
53801;SDS011;39709;53.334;6.534;2022-11-20T04:13:36;18.53;;;7.40;;
53801;SDS011;39709;53.334;6.534;2022-11-20T04:16:02;16.05;;;7.03;;
53801;SDS011;39709;53.334;6.534;2022-11-20T04:18:29;15.65;;;6.45;;
53801;SDS011;39709;53.334;6.534;2022-11-20T04:20:56;15.53;;;7.00;;
53801;SDS011;39709;53.334;6.534;2022-11-20T04:23:22;22.23;;;8.20;;
53801;SDS011;39709;53.334;6.534;2022-11-20T04:25:48;27.88;;;10.48;;
53801;SDS011;39709;53.334;6.534;2022-11-20T04:28:13;27.73;;;9.77;;
53801;SDS011;39709;53.334;6.534;2022-11-20T04:30:39;20.90;;;8.30;;
53801;SDS011;39709;53.334;6.534;2022-11-20T04:33:05;21.02;;;8.55;;
53801;SDS011;39709;53.334;6.534;2022-11-20T04:35:33;22.30;;;8.80;;
53801;SDS011;39709;53.334;6.534;2022-11-20T04:37:59;19.30;;;7.88;;
53801;SDS011;39709;53.334;6.534;2022-11-20T04:40:25;22.23;;;8.55;;
53801;SDS011;39709;53.334;6.534;2022-11-20T04:42:51;18.00;;;7.60;;
53801;SDS011;39709;53.334;6.534;2022-11-20T04:45:16;17.40;;;7.40;;
53801;SDS011;39709;53.334;6.534;2022-11-20T04:47:42;16.70;;;7.30;;
53801;SDS011;39709;53.334;6.534;2022-11-20T04:50:08;18.60;;;8.40;;
53801;SDS011;39709;53.334;6.534;2022-11-20T04:52:34;19.20;;;7.97;;
53801;SDS011;39709;53.334;6.534;2022-11-20T04:54:59;17.17;;;7.38;;
53801;SDS011;39709;53.334;6.534;2022-11-20T04:57:25;15.93;;;6.60;;
53801;SDS011;39709;53.334;6.534;2022-11-20T04:59:51;15.77;;;7.40;;
53801;SDS011;39709;53.334;6.534;2022-11-20T05:02:16;14.73;;;6.60;;
53801;SDS011;39709;53.334;6.534;2022-11-20T05:04:42;16.73;;;7.32;;
53801;SDS011;39709;53.334;6.534;2022-11-20T05:07:08;15.97;;;6.77;;
53801;SDS011;39709;53.334;6.534;2022-11-20T05:09:33;15.73;;;7.00;;
53801;SDS011;39709;53.334;6.534;2022-11-20T05:11:59;18.02;;;7.15;;
53801;SDS011;39709;53.334;6.534;2022-11-20T05:14:25;14.87;;;6.30;;
53801;SDS011;39709;53.334;6.534;2022-11-20T05:16:50;14.82;;;6.43;;
53801;SDS011;39709;53.334;6.534;2022-11-20T05:19:16;14.47;;;6.10;;
53801;SDS011;39709;53.334;6.534;2022-11-20T05:21:41;15.15;;;6.18;;
53801;SDS011;39709;53.334;6.534;2022-11-20T05:24:07;13.53;;;6.10;;
53801;SDS011;39709;53.334;6.534;2022-11-20T05:26:33;16.35;;;6.72;;
53801;SDS011;39709;53.334;6.534;2022-11-20T05:28:58;15.60;;;6.17;;
53801;SDS011;39709;53.334;6.534;2022-11-20T05:31:24;14.63;;;5.77;;
53801;SDS011;39709;53.334;6.534;2022-11-20T05:33:50;13.60;;;5.90;;
53801;SDS011;39709;53.334;6.534;2022-11-20T05:36:16;10.23;;;3.55;;
53801;SDS011;39709;53.334;6.534;2022-11-20T05:38:43;14.82;;;6.80;;
53801;SDS011;39709;53.334;6.534;2022-11-20T05:41:13;10.87;;;3.97;;
53801;SDS011;39709;53.334;6.534;2022-11-20T05:43:42;13.85;;;6.10;;
53801;SDS011;39709;53.334;6.534;2022-11-20T05:46:10;17.63;;;6.03;;
53801;SDS011;39709;53.334;6.534;2022-11-20T05:48:37;17.75;;;6.40;;
53801;SDS011;39709;53.334;6.534;2022-11-20T05:51:06;13.88;;;6.10;;
53801;SDS011;39709;53.334;6.534;2022-11-20T05:53:34;14.53;;;5.93;;
53801;SDS011;39709;53.334;6.534;2022-11-20T05:58:30;5.82;;;2.28;;
53801;SDS011;39709;53.334;6.534;2022-11-20T06:01:07;15.77;;;6.25;;
53801;SDS011;39709;53.334;6.534;2022-11-20T06:03:36;10.98;;;3.78;;
53801;SDS011;39709;53.334;6.534;2022-11-20T06:06:04;16.20;;;6.00;;
53801;SDS011;39709;53.334;6.534;2022-11-20T06:08:30;15.15;;;6.10;;
53801;SDS011;39709;53.334;6.534;2022-11-20T06:10:56;15.10;;;6.03;;
53801;SDS011;39709;53.334;6.534;2022-11-20T06:13:22;6.65;;;1.80;;
53801;SDS011;39709;53.334;6.534;2022-11-20T06:15:49;14.63;;;5.60;;
53801;SDS011;39709;53.334;6.534;2022-11-20T06:18:15;16.52;;;6.13;;
53801;SDS011;39709;53.334;6.534;2022-11-20T06:20:41;12.55;;;5.80;;
53801;SDS011;39709;53.334;6.534;2022-11-20T06:23:07;15.07;;;5.20;;
53801;SDS011;39709;53.334;6.534;2022-11-20T06:25:32;13.50;;;4.72;;
53801;SDS011;39709;53.334;6.534;2022-11-20T06:27:58;13.00;;;4.33;;
53801;SDS011;39709;53.334;6.534;2022-11-20T06:30:24;13.67;;;5.90;;
53801;SDS011;39709;53.334;6.534;2022-11-20T06:32:49;13.48;;;5.68;;
53801;SDS011;39709;53.334;6.534;2022-11-20T06:35:15;13.20;;;5.43;;
53801;SDS011;39709;53.334;6.534;2022-11-20T06:37:40;4.82;;;1.67;;
53801;SDS011;39709;53.334;6.534;2022-11-20T06:40:07;15.73;;;5.85;;
53801;SDS011;39709;53.334;6.534;2022-11-20T06:42:33;14.80;;;6.10;;
53801;SDS011;39709;53.334;6.534;2022-11-20T06:44:59;14.52;;;6.03;;
53801;SDS011;39709;53.334;6.534;2022-11-20T06:47:25;12.53;;;5.43;;
53801;SDS011;39709;53.334;6.534;2022-11-20T06:49:50;15.88;;;6.15;;
53801;SDS011;39709;53.334;6.534;2022-11-20T06:52:16;14.17;;;5.57;;
53801;SDS011;39709;53.334;6.534;2022-11-20T06:54:41;15.73;;;5.90;;
53801;SDS011;39709;53.334;6.534;2022-11-20T06:57:07;14.45;;;6.22;;
53801;SDS011;39709;53.334;6.534;2022-11-20T06:59:33;14.43;;;6.27;;
53801;SDS011;39709;53.334;6.534;2022-11-20T07:01:58;14.88;;;6.18;;
53801;SDS011;39709;53.334;6.534;2022-11-20T07:04:24;13.33;;;6.00;;
53801;SDS011;39709;53.334;6.534;2022-11-20T07:06:50;15.67;;;6.43;;
53801;SDS011;39709;53.334;6.534;2022-11-20T07:09:15;16.30;;;5.80;;
53801;SDS011;39709;53.334;6.534;2022-11-20T07:11:41;16.97;;;7.40;;
53801;SDS011;39709;53.334;6.534;2022-11-20T07:14:07;18.10;;;7.95;;
53801;SDS011;39709;53.334;6.534;2022-11-20T07:16:32;17.40;;;7.07;;
53801;SDS011;39709;53.334;6.534;2022-11-20T07:18:58;15.95;;;7.13;;
53801;SDS011;39709;53.334;6.534;2022-11-20T07:21:24;16.73;;;7.37;;
53801;SDS011;39709;53.334;6.534;2022-11-20T07:23:49;15.48;;;7.00;;
53801;SDS011;39709;53.334;6.534;2022-11-20T07:26:15;16.30;;;7.17;;
53801;SDS011;39709;53.334;6.534;2022-11-20T07:28:43;18.17;;;7.50;;
53801;SDS011;39709;53.334;6.534;2022-11-20T07:31:09;17.17;;;6.45;;
53801;SDS011;39709;53.334;6.534;2022-11-20T07:33:35;14.38;;;5.85;;
53801;SDS011;39709;53.334;6.534;2022-11-20T07:36:00;17.03;;;7.17;;
53801;SDS011;39709;53.334;6.534;2022-11-20T07:38:26;16.08;;;6.63;;
53801;SDS011;39709;53.334;6.534;2022-11-20T07:40:56;15.07;;;6.27;;
53801;SDS011;39709;53.334;6.534;2022-11-20T07:43:22;16.42;;;6.90;;
53801;SDS011;39709;53.334;6.534;2022-11-20T07:45:49;16.05;;;6.82;;
53801;SDS011;39709;53.334;6.534;2022-11-20T07:48:15;14.63;;;5.30;;
53801;SDS011;39709;53.334;6.534;2022-11-20T07:50:40;11.03;;;4.30;;
53801;SDS011;39709;53.334;6.534;2022-11-20T07:53:06;16.40;;;7.00;;
53801;SDS011;39709;53.334;6.534;2022-11-20T07:55:32;17.13;;;7.47;;
53801;SDS011;39709;53.334;6.534;2022-11-20T07:57:58;16.30;;;7.60;;
53801;SDS011;39709;53.334;6.534;2022-11-20T08:00:24;17.92;;;7.05;;
53801;SDS011;39709;53.334;6.534;2022-11-20T08:02:51;17.80;;;7.57;;
53801;SDS011;39709;53.334;6.534;2022-11-20T08:05:17;16.60;;;7.40;;
53801;SDS011;39709;53.334;6.534;2022-11-20T08:07:43;15.57;;;6.97;;
53801;SDS011;39709;53.334;6.534;2022-11-20T08:10:10;16.05;;;6.80;;
53801;SDS011;39709;53.334;6.534;2022-11-20T08:12:49;15.30;;;6.80;;
53801;SDS011;39709;53.334;6.534;2022-11-20T08:15:35;16.08;;;6.70;;
53801;SDS011;39709;53.334;6.534;2022-11-20T08:18:02;15.88;;;6.95;;
53801;SDS011;39709;53.334;6.534;2022-11-20T08:20:29;17.35;;;6.90;;
53801;SDS011;39709;53.334;6.534;2022-11-20T08:22:59;16.00;;;7.10;;
53801;SDS011;39709;53.334;6.534;2022-11-20T08:25:30;15.57;;;6.97;;
53801;SDS011;39709;53.334;6.534;2022-11-20T08:27:57;17.92;;;7.60;;
53801;SDS011;39709;53.334;6.534;2022-11-20T08:30:23;17.25;;;7.78;;
53801;SDS011;39709;53.334;6.534;2022-11-20T08:32:49;16.85;;;7.78;;
53801;SDS011;39709;53.334;6.534;2022-11-20T08:35:15;18.60;;;8.93;;
53801;SDS011;39709;53.334;6.534;2022-11-20T08:37:41;18.88;;;8.98;;
53801;SDS011;39709;53.334;6.534;2022-11-20T08:40:10;20.53;;;9.20;;
53801;SDS011;39709;53.334;6.534;2022-11-20T08:42:36;25.95;;;10.77;;
53801;SDS011;39709;53.334;6.534;2022-11-20T08:45:02;26.87;;;11.67;;
53801;SDS011;39709;53.334;6.534;2022-11-20T08:47:28;23.55;;;10.15;;
53801;SDS011;39709;53.334;6.534;2022-11-20T08:49:53;24.38;;;9.73;;
53801;SDS011;39709;53.334;6.534;2022-11-20T08:52:19;22.87;;;9.80;;
53801;SDS011;39709;53.334;6.534;2022-11-20T08:54:45;18.37;;;8.50;;
53801;SDS011;39709;53.334;6.534;2022-11-20T08:57:11;15.95;;;7.22;;
53801;SDS011;39709;53.334;6.534;2022-11-20T08:59:37;19.50;;;8.10;;
53801;SDS011;39709;53.334;6.534;2022-11-20T09:02:02;15.47;;;6.83;;
53801;SDS011;39709;53.334;6.534;2022-11-20T09:04:28;15.20;;;6.30;;
53801;SDS011;39709;53.334;6.534;2022-11-20T09:06:54;14.43;;;5.20;;
53801;SDS011;39709;53.334;6.534;2022-11-20T09:09:19;14.87;;;5.67;;
53801;SDS011;39709;53.334;6.534;2022-11-20T09:11:45;14.25;;;5.28;;
53801;SDS011;39709;53.334;6.534;2022-11-20T09:14:11;10.90;;;3.83;;
53801;SDS011;39709;53.334;6.534;2022-11-20T09:16:36;13.98;;;5.50;;
53801;SDS011;39709;53.334;6.534;2022-11-20T09:19:02;17.37;;;6.47;;
53801;SDS011;39709;53.334;6.534;2022-11-20T09:21:28;16.95;;;7.93;;
53801;SDS011;39709;53.334;6.534;2022-11-20T09:23:54;16.52;;;7.00;;
53801;SDS011;39709;53.334;6.534;2022-11-20T09:26:19;19.93;;;10.80;;
53801;SDS011;39709;53.334;6.534;2022-11-20T09:28:45;21.20;;;9.20;;
53801;SDS011;39709;53.334;6.534;2022-11-20T09:31:17;18.40;;;7.72;;
53801;SDS011;39709;53.334;6.534;2022-11-20T09:33:47;15.30;;;6.93;;
53801;SDS011;39709;53.334;6.534;2022-11-20T09:36:13;17.10;;;8.83;;
53801;SDS011;39709;53.334;6.534;2022-11-20T09:38:39;26.00;;;9.45;;
53801;SDS011;39709;53.334;6.534;2022-11-20T09:41:05;27.13;;;10.13;;
53801;SDS011;39709;53.334;6.534;2022-11-20T09:46:40;15.50;;;7.53;;
53801;SDS011;39709;53.334;6.534;2022-11-20T09:54:45;19.30;;;7.25;;
53801;SDS011;39709;53.334;6.534;2022-11-20T09:57:13;15.85;;;6.82;;
53801;SDS011;39709;53.334;6.534;2022-11-20T09:59:43;14.20;;;6.30;;
53801;SDS011;39709;53.334;6.534;2022-11-20T10:05:04;15.85;;;8.05;;
53801;SDS011;39709;53.334;6.534;2022-11-20T10:10:44;15.65;;;7.43;;
53801;SDS011;39709;53.334;6.534;2022-11-20T10:19:37;17.95;;;7.45;;
53801;SDS011;39709;53.334;6.534;2022-11-20T10:25:19;18.30;;;7.10;;
53801;SDS011;39709;53.334;6.534;2022-11-20T10:30:18;13.20;;;6.20;;
53801;SDS011;39709;53.334;6.534;2022-11-20T10:32:52;13.50;;;6.15;;
53801;SDS011;39709;53.334;6.534;2022-11-20T10:35:44;15.93;;;5.82;;
53801;SDS011;39709;53.334;6.534;2022-11-20T10:40:55;14.30;;;6.10;;
53801;SDS011;39709;53.334;6.534;2022-11-20T10:43:44;17.30;;;6.50;;
53801;SDS011;39709;53.334;6.534;2022-11-20T10:46:15;15.98;;;6.22;;
53801;SDS011;39709;53.334;6.534;2022-11-20T10:48:45;15.93;;;6.72;;
53801;SDS011;39709;53.334;6.534;2022-11-20T10:54:07;14.57;;;6.72;;
53801;SDS011;39709;53.334;6.534;2022-11-20T11:02:48;13.38;;;5.47;;
53801;SDS011;39709;53.334;6.534;2022-11-20T11:05:31;16.20;;;7.78;;
53801;SDS011;39709;53.334;6.534;2022-11-20T11:07:58;16.17;;;7.20;;
53801;SDS011;39709;53.334;6.534;2022-11-20T11:12:55;15.00;;;6.70;;
53801;SDS011;39709;53.334;6.534;2022-11-20T11:15:26;10.05;;;3.53;;
53801;SDS011;39709;53.334;6.534;2022-11-20T11:18:01;14.60;;;6.53;;
53801;SDS011;39709;53.334;6.534;2022-11-20T11:20:26;17.90;;;7.35;;
53801;SDS011;39709;53.334;6.534;2022-11-20T11:22:57;15.27;;;7.03;;
53801;SDS011;39709;53.334;6.534;2022-11-20T11:25:31;14.77;;;7.20;;
53801;SDS011;39709;53.334;6.534;2022-11-20T11:28:17;14.32;;;6.50;;
53801;SDS011;39709;53.334;6.534;2022-11-20T11:30:46;15.55;;;6.53;;
53801;SDS011;39709;53.334;6.534;2022-11-20T11:35:50;14.90;;;6.28;;
53801;SDS011;39709;53.334;6.534;2022-11-20T11:38:22;13.23;;;5.82;;
53801;SDS011;39709;53.334;6.534;2022-11-20T11:41:00;14.63;;;6.35;;
53801;SDS011;39709;53.334;6.534;2022-11-20T11:43:29;14.40;;;6.35;;
53801;SDS011;39709;53.334;6.534;2022-11-20T11:46:32;16.03;;;7.50;;
53801;SDS011;39709;53.334;6.534;2022-11-20T11:49:00;13.10;;;4.75;;
53801;SDS011;39709;53.334;6.534;2022-11-20T11:51:28;14.55;;;6.38;;
53801;SDS011;39709;53.334;6.534;2022-11-20T11:54:03;12.40;;;5.53;;
53801;SDS011;39709;53.334;6.534;2022-11-20T11:56:39;20.60;;;10.35;;
53801;SDS011;39709;53.334;6.534;2022-11-20T11:59:06;17.60;;;9.47;;
53801;SDS011;39709;53.334;6.534;2022-11-20T12:01:44;14.75;;;6.38;;
53801;SDS011;39709;53.334;6.534;2022-11-20T12:07:32;17.45;;;9.60;;
53801;SDS011;39709;53.334;6.534;2022-11-20T12:10:48;41.40;;;15.87;;
53801;SDS011;39709;53.334;6.534;2022-11-20T12:15:55;16.20;;;7.00;;
53801;SDS011;39709;53.334;6.534;2022-11-20T12:18:22;14.18;;;6.80;;
53801;SDS011;39709;53.334;6.534;2022-11-20T12:23:26;16.85;;;6.47;;
53801;SDS011;39709;53.334;6.534;2022-11-20T12:26:00;16.60;;;7.80;;
53801;SDS011;39709;53.334;6.534;2022-11-20T12:28:39;13.88;;;6.03;;
53801;SDS011;39709;53.334;6.534;2022-11-20T12:31:55;14.82;;;7.65;;
53801;SDS011;39709;53.334;6.534;2022-11-20T12:36:56;14.07;;;6.20;;
53801;SDS011;39709;53.334;6.534;2022-11-20T12:39:48;12.77;;;6.00;;
53801;SDS011;39709;53.334;6.534;2022-11-20T12:45:34;14.30;;;5.97;;
53801;SDS011;39709;53.334;6.534;2022-11-20T12:48:42;10.80;;;4.43;;
53801;SDS011;39709;53.334;6.534;2022-11-20T12:51:29;11.68;;;5.88;;
53801;SDS011;39709;53.334;6.534;2022-11-20T12:56:50;13.48;;;5.40;;
53801;SDS011;39709;53.334;6.534;2022-11-20T12:59:49;11.75;;;4.60;;
53801;SDS011;39709;53.334;6.534;2022-11-20T13:07:43;13.38;;;5.85;;
53801;SDS011;39709;53.334;6.534;2022-11-20T13:10:26;12.82;;;6.57;;
53801;SDS011;39709;53.334;6.534;2022-11-20T13:13:20;12.13;;;5.05;;
53801;SDS011;39709;53.334;6.534;2022-11-20T13:16:08;13.17;;;6.20;;
53801;SDS011;39709;53.334;6.534;2022-11-20T13:18:45;11.73;;;4.60;;
53801;SDS011;39709;53.334;6.534;2022-11-20T13:21:14;10.57;;;4.63;;
53801;SDS011;39709;53.334;6.534;2022-11-20T13:23:44;10.45;;;4.53;;
53801;SDS011;39709;53.334;6.534;2022-11-20T13:26:21;10.02;;;4.15;;
53801;SDS011;39709;53.334;6.534;2022-11-20T13:28:59;10.60;;;4.23;;
53801;SDS011;39709;53.334;6.534;2022-11-20T13:31:36;10.27;;;3.92;;
53801;SDS011;39709;53.334;6.534;2022-11-20T13:34:11;9.55;;;3.28;;
53801;SDS011;39709;53.334;6.534;2022-11-20T13:36:49;9.93;;;3.40;;
53801;SDS011;39709;53.334;6.534;2022-11-20T13:39:35;9.95;;;3.20;;
53801;SDS011;39709;53.334;6.534;2022-11-20T13:42:02;8.82;;;2.97;;
53801;SDS011;39709;53.334;6.534;2022-11-20T13:44:50;9.00;;;2.90;;
53801;SDS011;39709;53.334;6.534;2022-11-20T13:47:23;8.40;;;2.70;;
53801;SDS011;39709;53.334;6.534;2022-11-20T13:49:53;8.93;;;3.10;;
53801;SDS011;39709;53.334;6.534;2022-11-20T13:58:02;9.93;;;3.10;;
53801;SDS011;39709;53.334;6.534;2022-11-20T14:00:44;8.68;;;3.15;;
53801;SDS011;39709;53.334;6.534;2022-11-20T14:03:19;9.55;;;3.05;;
53801;SDS011;39709;53.334;6.534;2022-11-20T14:05:51;10.07;;;3.10;;
53801;SDS011;39709;53.334;6.534;2022-11-20T14:11:30;8.55;;;3.05;;
53801;SDS011;39709;53.334;6.534;2022-11-20T14:16:26;9.15;;;3.33;;
53801;SDS011;39709;53.334;6.534;2022-11-20T14:18:54;10.38;;;3.78;;
53801;SDS011;39709;53.334;6.534;2022-11-20T14:21:22;11.30;;;3.80;;
53801;SDS011;39709;53.334;6.534;2022-11-20T14:23:49;9.70;;;3.35;;
53801;SDS011;39709;53.334;6.534;2022-11-20T14:26:18;9.90;;;3.95;;
53801;SDS011;39709;53.334;6.534;2022-11-20T14:28:48;8.60;;;3.30;;
53801;SDS011;39709;53.334;6.534;2022-11-20T14:31:21;9.00;;;3.20;;
53801;SDS011;39709;53.334;6.534;2022-11-20T14:33:52;8.93;;;3.10;;
53801;SDS011;39709;53.334;6.534;2022-11-20T14:36:23;8.35;;;2.90;;
53801;SDS011;39709;53.334;6.534;2022-11-20T14:38:50;8.52;;;3.55;;
53801;SDS011;39709;53.334;6.534;2022-11-20T14:41:21;9.90;;;3.72;;
53801;SDS011;39709;53.334;6.534;2022-11-20T14:43:50;10.48;;;3.53;;
53801;SDS011;39709;53.334;6.534;2022-11-20T14:46:21;9.10;;;3.20;;
53801;SDS011;39709;53.334;6.534;2022-11-20T14:48:49;9.45;;;3.13;;
53801;SDS011;39709;53.334;6.534;2022-11-20T14:51:36;10.00;;;3.90;;
53801;SDS011;39709;53.334;6.534;2022-11-20T14:54:19;9.45;;;3.25;;
53801;SDS011;39709;53.334;6.534;2022-11-20T14:56:58;10.82;;;2.95;;
53801;SDS011;39709;53.334;6.534;2022-11-20T14:59:27;9.67;;;3.60;;
53801;SDS011;39709;53.334;6.534;2022-11-20T15:02:05;26.00;;;10.00;;
53801;SDS011;39709;53.334;6.534;2022-11-20T15:04:43;8.98;;;3.25;;
53801;SDS011;39709;53.334;6.534;2022-11-20T15:07:22;9.90;;;3.67;;
53801;SDS011;39709;53.334;6.534;2022-11-20T15:10:09;8.95;;;3.40;;
53801;SDS011;39709;53.334;6.534;2022-11-20T15:12:40;7.97;;;2.57;;
53801;SDS011;39709;53.334;6.534;2022-11-20T15:15:24;8.77;;;3.30;;
53801;SDS011;39709;53.334;6.534;2022-11-20T15:17:52;9.88;;;3.08;;
53801;SDS011;39709;53.334;6.534;2022-11-20T15:20:19;9.68;;;3.33;;
53801;SDS011;39709;53.334;6.534;2022-11-20T15:22:49;10.30;;;3.53;;
53801;SDS011;39709;53.334;6.534;2022-11-20T15:25:15;9.43;;;3.40;;
53801;SDS011;39709;53.334;6.534;2022-11-20T15:27:42;9.15;;;3.58;;
53801;SDS011;39709;53.334;6.534;2022-11-20T15:30:13;9.27;;;3.30;;
53801;SDS011;39709;53.334;6.534;2022-11-20T15:32:41;9.53;;;3.67;;
53801;SDS011;39709;53.334;6.534;2022-11-20T15:35:08;9.75;;;3.17;;
53801;SDS011;39709;53.334;6.534;2022-11-20T15:37:34;12.60;;;4.22;;
53801;SDS011;39709;53.334;6.534;2022-11-20T15:40:00;9.90;;;3.90;;
53801;SDS011;39709;53.334;6.534;2022-11-20T15:42:26;9.57;;;3.80;;
53801;SDS011;39709;53.334;6.534;2022-11-20T15:44:52;11.13;;;4.07;;
53801;SDS011;39709;53.334;6.534;2022-11-20T15:47:18;9.43;;;3.73;;
53801;SDS011;39709;53.334;6.534;2022-11-20T15:49:48;11.15;;;4.45;;
53801;SDS011;39709;53.334;6.534;2022-11-20T15:52:13;8.73;;;3.50;;
53801;SDS011;39709;53.334;6.534;2022-11-20T15:54:40;10.33;;;4.10;;
53801;SDS011;39709;53.334;6.534;2022-11-20T15:57:06;11.27;;;3.92;;
53801;SDS011;39709;53.334;6.534;2022-11-20T15:59:32;10.73;;;3.90;;
53801;SDS011;39709;53.334;6.534;2022-11-20T16:01:57;8.93;;;3.42;;
53801;SDS011;39709;53.334;6.534;2022-11-20T16:04:23;11.60;;;4.33;;
53801;SDS011;39709;53.334;6.534;2022-11-20T16:06:49;11.50;;;4.43;;
53801;SDS011;39709;53.334;6.534;2022-11-20T16:09:15;9.68;;;3.78;;
53801;SDS011;39709;53.334;6.534;2022-11-20T16:11:41;11.73;;;3.50;;
53801;SDS011;39709;53.334;6.534;2022-11-20T16:14:09;10.73;;;4.40;;
53801;SDS011;39709;53.334;6.534;2022-11-20T16:16:54;15.63;;;4.87;;
53801;SDS011;39709;53.334;6.534;2022-11-20T16:19:20;2.90;;;0.63;;
53801;SDS011;39709;53.334;6.534;2022-11-20T16:21:45;12.13;;;5.32;;
53801;SDS011;39709;53.334;6.534;2022-11-20T16:24:11;8.23;;;2.80;;
53801;SDS011;39709;53.334;6.534;2022-11-20T16:26:38;12.52;;;4.75;;